sensor_id;sensor_type;location;lat;lon;timestamp;P1;durP1;ratioP1;P2;durP2;ratioP2
44838;SDS011;30576;42.098;24.876;2022-10-31T01:09:14;5.88;;;2.92;;
44838;SDS011;30576;42.098;24.876;2022-10-31T01:14:05;3.95;;;3.28;;
44838;SDS011;30576;42.098;24.876;2022-10-31T01:21:22;4.18;;;1.92;;
44838;SDS011;30576;42.098;24.876;2022-10-31T01:23:50;3.60;;;2.75;;
44838;SDS011;30576;42.098;24.876;2022-10-31T01:26:29;1.08;;;1.00;;
44838;SDS011;30576;42.098;24.876;2022-10-31T01:28:56;3.03;;;2.58;;
44838;SDS011;30576;42.098;24.876;2022-10-31T01:31:25;2.22;;;2.00;;
44838;SDS011;30576;42.098;24.876;2022-10-31T01:33:52;3.75;;;2.13;;
44838;SDS011;30576;42.098;24.876;2022-10-31T01:38:47;2.78;;;2.30;;
44838;SDS011;30576;42.098;24.876;2022-10-31T01:41:15;1.77;;;1.48;;
44838;SDS011;30576;42.098;24.876;2022-10-31T01:46:08;3.50;;;2.08;;
44838;SDS011;30576;42.098;24.876;2022-10-31T01:50:59;6.93;;;4.38;;
44838;SDS011;30576;42.098;24.876;2022-10-31T01:55:51;2.90;;;1.98;;
44838;SDS011;30576;42.098;24.876;2022-10-31T02:00:45;1.40;;;1.30;;
44838;SDS011;30576;42.098;24.876;2022-10-31T02:03:16;3.55;;;2.28;;
44838;SDS011;30576;42.098;24.876;2022-10-31T02:05:43;3.90;;;2.90;;
44838;SDS011;30576;42.098;24.876;2022-10-31T02:10:37;14.48;;;2.05;;
44838;SDS011;30576;42.098;24.876;2022-10-31T02:15:29;1.50;;;1.08;;
44838;SDS011;30576;42.098;24.876;2022-10-31T02:17:56;2.92;;;2.00;;
44838;SDS011;30576;42.098;24.876;2022-10-31T02:20:23;1.02;;;0.95;;
44838;SDS011;30576;42.098;24.876;2022-10-31T02:28:32;1.77;;;1.15;;
44838;SDS011;30576;42.098;24.876;2022-10-31T02:33:51;1.40;;;1.08;;
44838;SDS011;30576;42.098;24.876;2022-10-31T02:41:46;1.23;;;0.68;;
44838;SDS011;30576;42.098;24.876;2022-10-31T02:44:16;2.17;;;0.98;;
44838;SDS011;30576;42.098;24.876;2022-10-31T02:46:48;1.42;;;1.25;;
44838;SDS011;30576;42.098;24.876;2022-10-31T02:49:38;2.80;;;1.77;;
44838;SDS011;30576;42.098;24.876;2022-10-31T02:52:29;2.47;;;1.35;;
44838;SDS011;30576;42.098;24.876;2022-10-31T02:54:56;2.30;;;1.17;;
44838;SDS011;30576;42.098;24.876;2022-10-31T02:57:25;1.75;;;1.23;;
44838;SDS011;30576;42.098;24.876;2022-10-31T03:00:04;2.75;;;1.52;;
44838;SDS011;30576;42.098;24.876;2022-10-31T03:06:08;2.85;;;1.10;;
44838;SDS011;30576;42.098;24.876;2022-10-31T03:08:25;1.00;;;0.90;;
44838;SDS011;30576;42.098;24.876;2022-10-31T03:11:01;1.27;;;1.15;;
44838;SDS011;30576;42.098;24.876;2022-10-31T03:18:51;1.88;;;0.88;;
44838;SDS011;30576;42.098;24.876;2022-10-31T03:21:27;2.72;;;1.40;;
44838;SDS011;30576;42.098;24.876;2022-10-31T03:23:59;1.65;;;1.30;;
44838;SDS011;30576;42.098;24.876;2022-10-31T03:26:26;1.27;;;0.77;;
44838;SDS011;30576;42.098;24.876;2022-10-31T03:28:54;0.85;;;0.85;;
44838;SDS011;30576;42.098;24.876;2022-10-31T03:31:31;3.22;;;1.58;;
44838;SDS011;30576;42.098;24.876;2022-10-31T03:34:01;1.40;;;0.90;;
44838;SDS011;30576;42.098;24.876;2022-10-31T03:36:32;2.08;;;1.23;;
44838;SDS011;30576;42.098;24.876;2022-10-31T03:39:01;2.50;;;1.35;;
44838;SDS011;30576;42.098;24.876;2022-10-31T03:41:29;0.82;;;0.77;;
44838;SDS011;30576;42.098;24.876;2022-10-31T03:43:59;3.58;;;1.92;;
44838;SDS011;30576;42.098;24.876;2022-10-31T03:46:29;3.40;;;1.48;;
44838;SDS011;30576;42.098;24.876;2022-10-31T03:48:55;0.52;;;0.52;;
44838;SDS011;30576;42.098;24.876;2022-10-31T03:51:32;1.52;;;0.65;;
44838;SDS011;30576;42.098;24.876;2022-10-31T03:56:53;1.40;;;0.75;;
44838;SDS011;30576;42.098;24.876;2022-10-31T03:59:24;1.88;;;1.25;;
44838;SDS011;30576;42.098;24.876;2022-10-31T04:01:55;0.40;;;0.40;;
44838;SDS011;30576;42.098;24.876;2022-10-31T04:04:26;4.05;;;1.60;;
44838;SDS011;30576;42.098;24.876;2022-10-31T04:06:53;0.63;;;0.50;;
44838;SDS011;30576;42.098;24.876;2022-10-31T04:09:21;8.05;;;2.05;;
44838;SDS011;30576;42.098;24.876;2022-10-31T04:11:51;1.17;;;1.08;;
44838;SDS011;30576;42.098;24.876;2022-10-31T04:14:19;2.65;;;1.13;;
44838;SDS011;30576;42.098;24.876;2022-10-31T04:16:46;1.08;;;0.98;;
44838;SDS011;30576;42.098;24.876;2022-10-31T04:19:12;4.13;;;0.75;;
44838;SDS011;30576;42.098;24.876;2022-10-31T04:21:39;1.45;;;1.27;;
44838;SDS011;30576;42.098;24.876;2022-10-31T04:24:05;8.65;;;3.00;;
44838;SDS011;30576;42.098;24.876;2022-10-31T04:26:30;1.05;;;0.90;;
44838;SDS011;30576;42.098;24.876;2022-10-31T04:28:56;1.38;;;0.93;;
44838;SDS011;30576;42.098;24.876;2022-10-31T04:31:21;1.73;;;1.27;;
44838;SDS011;30576;42.098;24.876;2022-10-31T04:33:47;0.98;;;0.82;;
44838;SDS011;30576;42.098;24.876;2022-10-31T04:36:12;1.60;;;0.85;;
44838;SDS011;30576;42.098;24.876;2022-10-31T04:38:37;0.73;;;0.73;;
44838;SDS011;30576;42.098;24.876;2022-10-31T04:41:03;2.33;;;1.45;;
44838;SDS011;30576;42.098;24.876;2022-10-31T04:43:29;2.80;;;1.70;;
44838;SDS011;30576;42.098;24.876;2022-10-31T04:45:54;1.48;;;1.08;;
44838;SDS011;30576;42.098;24.876;2022-10-31T04:48:20;2.15;;;1.45;;
44838;SDS011;30576;42.098;24.876;2022-10-31T04:50:45;1.30;;;0.98;;
44838;SDS011;30576;42.098;24.876;2022-10-31T04:53:10;2.08;;;1.33;;
44838;SDS011;30576;42.098;24.876;2022-10-31T04:55:36;3.78;;;1.52;;
44838;SDS011;30576;42.098;24.876;2022-10-31T04:58:02;2.42;;;1.50;;
44838;SDS011;30576;42.098;24.876;2022-10-31T05:00:27;1.63;;;1.15;;
44838;SDS011;30576;42.098;24.876;2022-10-31T05:02:54;14.65;;;1.95;;
44838;SDS011;30576;42.098;24.876;2022-10-31T05:05:22;7.13;;;2.25;;
44838;SDS011;30576;42.098;24.876;2022-10-31T05:07:50;1.15;;;1.05;;
44838;SDS011;30576;42.098;24.876;2022-10-31T05:10:17;2.70;;;1.63;;
44838;SDS011;30576;42.098;24.876;2022-10-31T05:12:48;1.95;;;1.20;;
44838;SDS011;30576;42.098;24.876;2022-10-31T05:15:15;1.75;;;1.10;;
44838;SDS011;30576;42.098;24.876;2022-10-31T05:17:42;7.00;;;1.33;;
44838;SDS011;30576;42.098;24.876;2022-10-31T05:20:08;1.48;;;0.77;;
44838;SDS011;30576;42.098;24.876;2022-10-31T05:22:34;0.95;;;0.90;;
44838;SDS011;30576;42.098;24.876;2022-10-31T05:25:01;4.32;;;1.67;;
44838;SDS011;30576;42.098;24.876;2022-10-31T05:27:26;5.57;;;2.15;;
44838;SDS011;30576;42.098;24.876;2022-10-31T05:29:51;2.28;;;1.80;;
44838;SDS011;30576;42.098;24.876;2022-10-31T05:32:17;2.22;;;1.83;;
44838;SDS011;30576;42.098;24.876;2022-10-31T05:34:42;7.47;;;0.95;;
44838;SDS011;30576;42.098;24.876;2022-10-31T05:37:08;7.00;;;0.98;;
44838;SDS011;30576;42.098;24.876;2022-10-31T05:39:33;1.10;;;1.00;;
44838;SDS011;30576;42.098;24.876;2022-10-31T05:41:59;1.77;;;0.77;;
44838;SDS011;30576;42.098;24.876;2022-10-31T05:44:24;2.67;;;0.90;;
44838;SDS011;30576;42.098;24.876;2022-10-31T05:46:50;2.90;;;1.65;;
44838;SDS011;30576;42.098;24.876;2022-10-31T05:49:15;1.40;;;0.80;;
44838;SDS011;30576;42.098;24.876;2022-10-31T05:51:42;2.03;;;1.20;;
44838;SDS011;30576;42.098;24.876;2022-10-31T05:54:07;3.90;;;0.95;;
44838;SDS011;30576;42.098;24.876;2022-10-31T05:56:33;5.00;;;1.00;;
44838;SDS011;30576;42.098;24.876;2022-10-31T05:58:58;1.75;;;1.20;;
44838;SDS011;30576;42.098;24.876;2022-10-31T06:01:24;2.05;;;1.08;;
44838;SDS011;30576;42.098;24.876;2022-10-31T06:03:49;2.80;;;1.02;;
44838;SDS011;30576;42.098;24.876;2022-10-31T06:06:15;11.95;;;1.85;;
44838;SDS011;30576;42.098;24.876;2022-10-31T06:08:40;2.25;;;1.15;;
44838;SDS011;30576;42.098;24.876;2022-10-31T06:11:06;5.57;;;1.73;;
44838;SDS011;30576;42.098;24.876;2022-10-31T06:13:31;1.63;;;1.08;;
44838;SDS011;30576;42.098;24.876;2022-10-31T06:15:57;34.15;;;2.05;;
44838;SDS011;30576;42.098;24.876;2022-10-31T06:18:22;4.35;;;1.50;;
44838;SDS011;30576;42.098;24.876;2022-10-31T06:20:48;1.48;;;1.13;;
44838;SDS011;30576;42.098;24.876;2022-10-31T06:23:13;15.70;;;4.22;;
44838;SDS011;30576;42.098;24.876;2022-10-31T06:25:39;6.57;;;3.03;;
44838;SDS011;30576;42.098;24.876;2022-10-31T06:28:05;8.85;;;4.43;;
44838;SDS011;30576;42.098;24.876;2022-10-31T06:30:30;10.63;;;3.03;;
44838;SDS011;30576;42.098;24.876;2022-10-31T06:33:01;7.18;;;3.95;;
44838;SDS011;30576;42.098;24.876;2022-10-31T06:35:28;1.85;;;0.88;;
44838;SDS011;30576;42.098;24.876;2022-10-31T06:37:54;2.97;;;1.65;;
44838;SDS011;30576;42.098;24.876;2022-10-31T06:40:19;12.85;;;1.40;;
44838;SDS011;30576;42.098;24.876;2022-10-31T06:42:45;6.07;;;2.58;;
44838;SDS011;30576;42.098;24.876;2022-10-31T06:45:10;5.00;;;1.90;;
44838;SDS011;30576;42.098;24.876;2022-10-31T06:47:36;1.75;;;0.68;;
44838;SDS011;30576;42.098;24.876;2022-10-31T06:50:01;2.05;;;1.45;;
44838;SDS011;30576;42.098;24.876;2022-10-31T06:52:27;2.45;;;1.20;;
44838;SDS011;30576;42.098;24.876;2022-10-31T06:54:52;2.75;;;1.15;;
44838;SDS011;30576;42.098;24.876;2022-10-31T06:57:18;3.42;;;1.70;;
44838;SDS011;30576;42.098;24.876;2022-10-31T06:59:43;7.38;;;2.10;;
44838;SDS011;30576;42.098;24.876;2022-10-31T07:02:09;0.90;;;0.50;;
44838;SDS011;30576;42.098;24.876;2022-10-31T07:04:35;1.15;;;0.73;;
44838;SDS011;30576;42.098;24.876;2022-10-31T07:07:01;1.90;;;1.05;;
44838;SDS011;30576;42.098;24.876;2022-10-31T07:09:26;1.83;;;1.38;;
44838;SDS011;30576;42.098;24.876;2022-10-31T07:11:52;8.82;;;1.50;;
44838;SDS011;30576;42.098;24.876;2022-10-31T07:14:18;5.32;;;1.98;;
44838;SDS011;30576;42.098;24.876;2022-10-31T07:16:43;2.67;;;1.45;;
44838;SDS011;30576;42.098;24.876;2022-10-31T07:19:12;3.15;;;1.13;;
44838;SDS011;30576;42.098;24.876;2022-10-31T07:21:38;1.75;;;1.35;;
44838;SDS011;30576;42.098;24.876;2022-10-31T07:24:03;3.08;;;0.77;;
44838;SDS011;30576;42.098;24.876;2022-10-31T07:26:29;0.50;;;0.50;;
44838;SDS011;30576;42.098;24.876;2022-10-31T07:28:54;0.80;;;0.70;;
44838;SDS011;30576;42.098;24.876;2022-10-31T07:31:20;3.65;;;1.33;;
44838;SDS011;30576;42.098;24.876;2022-10-31T07:33:45;3.03;;;1.30;;
44838;SDS011;30576;42.098;24.876;2022-10-31T07:36:11;2.63;;;2.15;;
44838;SDS011;30576;42.098;24.876;2022-10-31T07:38:36;0.70;;;0.63;;
44838;SDS011;30576;42.098;24.876;2022-10-31T07:41:02;3.70;;;1.63;;
44838;SDS011;30576;42.098;24.876;2022-10-31T07:43:27;7.40;;;0.90;;
44838;SDS011;30576;42.098;24.876;2022-10-31T07:45:53;1.08;;;0.80;;
44838;SDS011;30576;42.098;24.876;2022-10-31T07:48:19;4.65;;;1.33;;
44838;SDS011;30576;42.098;24.876;2022-10-31T07:50:45;1.98;;;1.20;;
44838;SDS011;30576;42.098;24.876;2022-10-31T07:53:12;0.90;;;0.88;;
44838;SDS011;30576;42.098;24.876;2022-10-31T07:55:38;3.67;;;1.60;;
44838;SDS011;30576;42.098;24.876;2022-10-31T07:58:05;8.98;;;1.95;;
44838;SDS011;30576;42.098;24.876;2022-10-31T08:00:35;1.08;;;0.95;;
44838;SDS011;30576;42.098;24.876;2022-10-31T08:03:09;4.40;;;1.23;;
44838;SDS011;30576;42.098;24.876;2022-10-31T08:05:36;4.00;;;1.60;;
44838;SDS011;30576;42.098;24.876;2022-10-31T08:08:02;1.10;;;0.80;;
44838;SDS011;30576;42.098;24.876;2022-10-31T08:10:28;2.33;;;1.13;;
44838;SDS011;30576;42.098;24.876;2022-10-31T08:12:54;8.27;;;1.23;;
44838;SDS011;30576;42.098;24.876;2022-10-31T08:15:21;2.22;;;1.65;;
44838;SDS011;30576;42.098;24.876;2022-10-31T08:17:47;2.67;;;1.25;;
44838;SDS011;30576;42.098;24.876;2022-10-31T08:20:12;1.52;;;0.75;;
44838;SDS011;30576;42.098;24.876;2022-10-31T08:22:38;2.58;;;1.23;;
44838;SDS011;30576;42.098;24.876;2022-10-31T08:25:03;2.47;;;1.33;;
44838;SDS011;30576;42.098;24.876;2022-10-31T08:27:29;1.55;;;0.82;;
44838;SDS011;30576;42.098;24.876;2022-10-31T08:29:55;4.07;;;1.92;;
44838;SDS011;30576;42.098;24.876;2022-10-31T08:32:26;3.95;;;1.48;;
44838;SDS011;30576;42.098;24.876;2022-10-31T08:34:51;1.95;;;1.00;;
44838;SDS011;30576;42.098;24.876;2022-10-31T08:37:17;2.20;;;1.38;;
44838;SDS011;30576;42.098;24.876;2022-10-31T08:39:45;5.50;;;1.27;;
44838;SDS011;30576;42.098;24.876;2022-10-31T08:42:13;6.47;;;1.00;;
44838;SDS011;30576;42.098;24.876;2022-10-31T08:44:39;5.18;;;1.42;;
44838;SDS011;30576;42.098;24.876;2022-10-31T08:47:04;2.40;;;0.98;;
44838;SDS011;30576;42.098;24.876;2022-10-31T08:49:30;1.42;;;1.00;;
44838;SDS011;30576;42.098;24.876;2022-10-31T08:51:56;3.47;;;1.70;;
44838;SDS011;30576;42.098;24.876;2022-10-31T08:54:21;5.20;;;1.67;;
44838;SDS011;30576;42.098;24.876;2022-10-31T08:56:47;4.25;;;1.42;;
44838;SDS011;30576;42.098;24.876;2022-10-31T08:59:12;1.27;;;0.80;;
44838;SDS011;30576;42.098;24.876;2022-10-31T09:01:37;2.88;;;1.02;;
44838;SDS011;30576;42.098;24.876;2022-10-31T09:04:03;6.72;;;1.10;;
44838;SDS011;30576;42.098;24.876;2022-10-31T09:06:28;3.83;;;1.25;;
44838;SDS011;30576;42.098;24.876;2022-10-31T09:08:54;4.00;;;1.70;;
44838;SDS011;30576;42.098;24.876;2022-10-31T09:11:19;6.10;;;1.75;;
44838;SDS011;30576;42.098;24.876;2022-10-31T09:13:45;3.97;;;1.73;;
44838;SDS011;30576;42.098;24.876;2022-10-31T09:16:10;2.78;;;1.42;;
44838;SDS011;30576;42.098;24.876;2022-10-31T09:18:35;4.18;;;0.90;;
44838;SDS011;30576;42.098;24.876;2022-10-31T09:21:01;2.20;;;1.55;;
44838;SDS011;30576;42.098;24.876;2022-10-31T09:23:27;3.67;;;1.40;;
44838;SDS011;30576;42.098;24.876;2022-10-31T09:25:53;7.20;;;2.15;;
44838;SDS011;30576;42.098;24.876;2022-10-31T09:28:19;4.53;;;1.50;;
44838;SDS011;30576;42.098;24.876;2022-10-31T09:30:50;3.50;;;1.42;;
44838;SDS011;30576;42.098;24.876;2022-10-31T09:33:17;2.05;;;1.08;;
44838;SDS011;30576;42.098;24.876;2022-10-31T09:35:43;15.45;;;2.35;;
44838;SDS011;30576;42.098;24.876;2022-10-31T09:38:10;2.80;;;1.67;;
44838;SDS011;30576;42.098;24.876;2022-10-31T09:48:52;3.80;;;1.60;;
44838;SDS011;30576;42.098;24.876;2022-10-31T09:51:29;3.20;;;2.00;;
44838;SDS011;30576;42.098;24.876;2022-10-31T09:56:31;2.40;;;1.73;;
44838;SDS011;30576;42.098;24.876;2022-10-31T09:58:58;3.40;;;1.23;;
44838;SDS011;30576;42.098;24.876;2022-10-31T10:04:53;2.50;;;0.77;;
44838;SDS011;30576;42.098;24.876;2022-10-31T10:06:52;7.07;;;1.17;;
44838;SDS011;30576;42.098;24.876;2022-10-31T10:09:19;10.85;;;1.77;;
44838;SDS011;30576;42.098;24.876;2022-10-31T10:22:15;3.45;;;1.00;;
44838;SDS011;30576;42.098;24.876;2022-10-31T10:27:46;6.88;;;1.88;;
44838;SDS011;30576;42.098;24.876;2022-10-31T10:30:20;1.58;;;1.13;;
44838;SDS011;30576;42.098;24.876;2022-10-31T10:33:05;9.63;;;1.23;;
44838;SDS011;30576;42.098;24.876;2022-10-31T10:35:50;2.22;;;1.50;;
44838;SDS011;30576;42.098;24.876;2022-10-31T10:40:49;3.72;;;1.75;;
44838;SDS011;30576;42.098;24.876;2022-10-31T10:43:21;5.13;;;1.20;;
44838;SDS011;30576;42.098;24.876;2022-10-31T10:51:32;1.33;;;0.88;;
44838;SDS011;30576;42.098;24.876;2022-10-31T10:57:18;1.40;;;0.93;;
44838;SDS011;30576;42.098;24.876;2022-10-31T10:59:51;5.30;;;1.58;;
44838;SDS011;30576;42.098;24.876;2022-10-31T11:02:24;1.85;;;1.00;;
44838;SDS011;30576;42.098;24.876;2022-10-31T11:04:55;2.33;;;1.60;;
44838;SDS011;30576;42.098;24.876;2022-10-31T11:07:23;1.58;;;0.65;;
44838;SDS011;30576;42.098;24.876;2022-10-31T11:09:49;2.08;;;0.75;;
44838;SDS011;30576;42.098;24.876;2022-10-31T11:15:03;2.97;;;1.52;;
44838;SDS011;30576;42.098;24.876;2022-10-31T11:17:41;1.40;;;0.65;;
44838;SDS011;30576;42.098;24.876;2022-10-31T11:22:39;7.15;;;1.08;;
44838;SDS011;30576;42.098;24.876;2022-10-31T11:28:01;2.38;;;1.13;;
44838;SDS011;30576;42.098;24.876;2022-10-31T11:30:29;1.38;;;0.80;;
44838;SDS011;30576;42.098;24.876;2022-10-31T11:33:00;2.92;;;0.90;;
44838;SDS011;30576;42.098;24.876;2022-10-31T11:35:25;4.13;;;1.55;;
44838;SDS011;30576;42.098;24.876;2022-10-31T11:37:52;3.03;;;1.35;;
44838;SDS011;30576;42.098;24.876;2022-10-31T11:40:23;1.58;;;1.13;;
44838;SDS011;30576;42.098;24.876;2022-10-31T11:42:52;0.63;;;0.63;;
44838;SDS011;30576;42.098;24.876;2022-10-31T11:47:49;3.13;;;1.20;;
44838;SDS011;30576;42.098;24.876;2022-10-31T11:50:21;1.50;;;0.60;;
44838;SDS011;30576;42.098;24.876;2022-10-31T13:08:26;3.58;;;1.80;;
44838;SDS011;30576;42.098;24.876;2022-10-31T13:16:28;4.53;;;2.95;;
44838;SDS011;30576;42.098;24.876;2022-10-31T13:21:34;3.38;;;0.60;;
44838;SDS011;30576;42.098;24.876;2022-10-31T13:24:07;1.08;;;0.45;;
44838;SDS011;30576;42.098;24.876;2022-10-31T13:26:41;1.95;;;0.60;;
44838;SDS011;30576;42.098;24.876;2022-10-31T13:29:27;2.33;;;1.15;;
44838;SDS011;30576;42.098;24.876;2022-10-31T13:31:58;1.15;;;0.70;;
44838;SDS011;30576;42.098;24.876;2022-10-31T13:34:32;1.30;;;0.98;;
44838;SDS011;30576;42.098;24.876;2022-10-31T13:37:12;2.20;;;1.17;;
44838;SDS011;30576;42.098;24.876;2022-10-31T13:39:49;3.85;;;1.50;;
44838;SDS011;30576;42.098;24.876;2022-10-31T13:42:20;9.63;;;2.58;;
44838;SDS011;30576;42.098;24.876;2022-10-31T13:45:06;9.63;;;4.57;;
44838;SDS011;30576;42.098;24.876;2022-10-31T13:47:36;9.23;;;3.38;;
44838;SDS011;30576;42.098;24.876;2022-10-31T13:50:06;7.13;;;0.88;;
44838;SDS011;30576;42.098;24.876;2022-10-31T13:52:43;2.20;;;1.10;;
44838;SDS011;30576;42.098;24.876;2022-10-31T13:58:22;0.52;;;0.25;;
44838;SDS011;30576;42.098;24.876;2022-10-31T14:01:31;1.85;;;1.13;;
44838;SDS011;30576;42.098;24.876;2022-10-31T14:03:42;1.33;;;1.00;;
44838;SDS011;30576;42.098;24.876;2022-10-31T14:06:10;2.72;;;0.80;;
44838;SDS011;30576;42.098;24.876;2022-10-31T14:08:37;2.40;;;0.90;;
44838;SDS011;30576;42.098;24.876;2022-10-31T14:11:07;8.90;;;1.38;;
44838;SDS011;30576;42.098;24.876;2022-10-31T14:13:43;1.60;;;0.77;;
44838;SDS011;30576;42.098;24.876;2022-10-31T14:16:22;9.57;;;1.63;;
44838;SDS011;30576;42.098;24.876;2022-10-31T14:18:51;3.67;;;0.98;;
44838;SDS011;30576;42.098;24.876;2022-10-31T14:21:42;8.23;;;1.70;;
44838;SDS011;30576;42.098;24.876;2022-10-31T14:24:13;1.63;;;1.20;;
44838;SDS011;30576;42.098;24.876;2022-10-31T14:26:50;6.00;;;0.63;;
44838;SDS011;30576;42.098;24.876;2022-10-31T14:31:43;14.27;;;3.03;;
44838;SDS011;30576;42.098;24.876;2022-10-31T14:36:57;2.42;;;1.55;;
44838;SDS011;30576;42.098;24.876;2022-10-31T14:42:31;4.82;;;1.10;;
44838;SDS011;30576;42.098;24.876;2022-10-31T14:50:52;5.68;;;1.05;;
44838;SDS011;30576;42.098;24.876;2022-10-31T14:53:33;8.02;;;3.00;;
44838;SDS011;30576;42.098;24.876;2022-10-31T14:56:01;4.53;;;2.35;;
44838;SDS011;30576;42.098;24.876;2022-10-31T14:58:43;10.95;;;2.17;;
44838;SDS011;30576;42.098;24.876;2022-10-31T15:01:24;5.43;;;2.10;;
44838;SDS011;30576;42.098;24.876;2022-10-31T15:04:03;16.67;;;2.58;;
44838;SDS011;30576;42.098;24.876;2022-10-31T15:06:42;3.30;;;1.80;;
44838;SDS011;30576;42.098;24.876;2022-10-31T15:09:24;4.10;;;1.52;;
44838;SDS011;30576;42.098;24.876;2022-10-31T15:11:51;3.35;;;2.30;;
44838;SDS011;30576;42.098;24.876;2022-10-31T15:14:27;3.42;;;0.93;;
44838;SDS011;30576;42.098;24.876;2022-10-31T15:16:58;7.65;;;2.35;;
44838;SDS011;30576;42.098;24.876;2022-10-31T15:19:27;1.98;;;0.90;;
44838;SDS011;30576;42.098;24.876;2022-10-31T15:21:56;5.10;;;1.30;;
44838;SDS011;30576;42.098;24.876;2022-10-31T15:24:23;12.00;;;3.15;;
44838;SDS011;30576;42.098;24.876;2022-10-31T15:26:54;9.07;;;5.35;;
44838;SDS011;30576;42.098;24.876;2022-10-31T15:29:21;19.30;;;6.75;;
44838;SDS011;30576;42.098;24.876;2022-10-31T15:31:55;21.13;;;4.88;;
44838;SDS011;30576;42.098;24.876;2022-10-31T15:34:26;18.52;;;6.75;;
44838;SDS011;30576;42.098;24.876;2022-10-31T15:37:02;14.23;;;4.57;;
44838;SDS011;30576;42.098;24.876;2022-10-31T15:39:28;11.40;;;4.50;;
44838;SDS011;30576;42.098;24.876;2022-10-31T15:41:55;9.70;;;5.18;;
44838;SDS011;30576;42.098;24.876;2022-10-31T15:47:01;7.43;;;3.95;;
44838;SDS011;30576;42.098;24.876;2022-10-31T15:51:57;8.38;;;4.22;;
44838;SDS011;30576;42.098;24.876;2022-10-31T15:54:28;12.02;;;4.15;;
44838;SDS011;30576;42.098;24.876;2022-10-31T15:56:54;9.75;;;3.92;;
44838;SDS011;30576;42.098;24.876;2022-10-31T15:59:22;12.65;;;4.65;;
44838;SDS011;30576;42.098;24.876;2022-10-31T16:01:59;9.82;;;5.15;;
44838;SDS011;30576;42.098;24.876;2022-10-31T16:04:27;15.85;;;3.13;;
44838;SDS011;30576;42.098;24.876;2022-10-31T16:07:00;4.38;;;2.75;;
44838;SDS011;30576;42.098;24.876;2022-10-31T16:09:56;5.45;;;2.45;;
44838;SDS011;30576;42.098;24.876;2022-10-31T16:12:27;5.30;;;2.78;;
44838;SDS011;30576;42.098;24.876;2022-10-31T16:14:57;3.58;;;1.70;;
44838;SDS011;30576;42.098;24.876;2022-10-31T16:17:24;8.50;;;2.38;;
44838;SDS011;30576;42.098;24.876;2022-10-31T16:22:37;6.55;;;1.75;;
44838;SDS011;30576;42.098;24.876;2022-10-31T16:27:39;10.38;;;1.45;;
44838;SDS011;30576;42.098;24.876;2022-10-31T16:33:05;10.93;;;3.35;;
44838;SDS011;30576;42.098;24.876;2022-10-31T16:35:46;6.80;;;1.65;;
44838;SDS011;30576;42.098;24.876;2022-10-31T16:38:12;5.53;;;1.73;;
44838;SDS011;30576;42.098;24.876;2022-10-31T16:40:38;31.25;;;4.03;;
44838;SDS011;30576;42.098;24.876;2022-10-31T16:43:04;4.75;;;1.23;;
44838;SDS011;30576;42.098;24.876;2022-10-31T16:45:31;2.45;;;1.50;;
44838;SDS011;30576;42.098;24.876;2022-10-31T16:48:05;2.13;;;1.17;;
44838;SDS011;30576;42.098;24.876;2022-10-31T16:50:35;15.55;;;2.63;;
44838;SDS011;30576;42.098;24.876;2022-10-31T16:53:02;7.47;;;1.98;;
44838;SDS011;30576;42.098;24.876;2022-10-31T16:55:28;13.15;;;3.50;;
44838;SDS011;30576;42.098;24.876;2022-10-31T16:57:54;19.63;;;3.45;;
44838;SDS011;30576;42.098;24.876;2022-10-31T17:00:22;7.22;;;4.68;;
44838;SDS011;30576;42.098;24.876;2022-10-31T17:02:53;1.95;;;1.25;;
44838;SDS011;30576;42.098;24.876;2022-10-31T17:05:21;6.60;;;2.03;;
44838;SDS011;30576;42.098;24.876;2022-10-31T17:07:54;8.60;;;3.63;;
44838;SDS011;30576;42.098;24.876;2022-10-31T17:10:24;1.10;;;0.82;;
44838;SDS011;30576;42.098;24.876;2022-10-31T17:12:51;9.30;;;2.08;;
44838;SDS011;30576;42.098;24.876;2022-10-31T17:15:21;7.72;;;1.27;;
44838;SDS011;30576;42.098;24.876;2022-10-31T17:17:49;5.90;;;2.25;;
44838;SDS011;30576;42.098;24.876;2022-10-31T17:22:53;12.65;;;1.33;;
44838;SDS011;30576;42.098;24.876;2022-10-31T17:25:21;3.83;;;2.00;;
44838;SDS011;30576;42.098;24.876;2022-10-31T17:27:49;1.70;;;1.27;;
44838;SDS011;30576;42.098;24.876;2022-10-31T17:30:15;2.50;;;1.20;;
44838;SDS011;30576;42.098;24.876;2022-10-31T17:32:43;2.30;;;0.90;;
44838;SDS011;30576;42.098;24.876;2022-10-31T17:35:09;6.50;;;3.05;;
44838;SDS011;30576;42.098;24.876;2022-10-31T17:37:39;3.40;;;1.55;;
44838;SDS011;30576;42.098;24.876;2022-10-31T17:40:07;3.17;;;1.42;;
44838;SDS011;30576;42.098;24.876;2022-10-31T17:42:34;5.38;;;1.92;;
44838;SDS011;30576;42.098;24.876;2022-10-31T17:44:59;3.70;;;0.90;;
44838;SDS011;30576;42.098;24.876;2022-10-31T17:47:24;3.15;;;1.55;;
44838;SDS011;30576;42.098;24.876;2022-10-31T17:49:50;3.33;;;1.77;;
44838;SDS011;30576;42.098;24.876;2022-10-31T17:52:17;4.03;;;2.10;;
44838;SDS011;30576;42.098;24.876;2022-10-31T17:54:43;9.25;;;2.25;;
44838;SDS011;30576;42.098;24.876;2022-10-31T17:57:10;4.57;;;2.00;;
44838;SDS011;30576;42.098;24.876;2022-10-31T17:59:36;14.93;;;1.55;;
44838;SDS011;30576;42.098;24.876;2022-10-31T18:02:01;2.30;;;1.38;;
44838;SDS011;30576;42.098;24.876;2022-10-31T18:04:32;6.35;;;2.97;;
44838;SDS011;30576;42.098;24.876;2022-10-31T18:06:59;1.38;;;1.15;;
44838;SDS011;30576;42.098;24.876;2022-10-31T18:09:24;2.15;;;1.23;;
44838;SDS011;30576;42.098;24.876;2022-10-31T18:11:50;2.72;;;1.20;;
44838;SDS011;30576;42.098;24.876;2022-10-31T18:14:15;3.75;;;1.63;;
44838;SDS011;30576;42.098;24.876;2022-10-31T18:16:41;4.05;;;1.80;;
44838;SDS011;30576;42.098;24.876;2022-10-31T18:19:06;4.88;;;2.10;;
44838;SDS011;30576;42.098;24.876;2022-10-31T18:21:31;5.90;;;1.80;;
44838;SDS011;30576;42.098;24.876;2022-10-31T18:23:58;2.75;;;1.67;;
44838;SDS011;30576;42.098;24.876;2022-10-31T18:26:25;3.22;;;1.33;;
44838;SDS011;30576;42.098;24.876;2022-10-31T18:28:51;3.50;;;1.83;;
44838;SDS011;30576;42.098;24.876;2022-10-31T18:31:17;5.00;;;2.45;;
44838;SDS011;30576;42.098;24.876;2022-10-31T18:33:43;3.53;;;1.25;;
44838;SDS011;30576;42.098;24.876;2022-10-31T18:36:09;16.23;;;1.10;;
44838;SDS011;30576;42.098;24.876;2022-10-31T18:38:39;3.38;;;1.83;;
44838;SDS011;30576;42.098;24.876;2022-10-31T18:41:07;0.90;;;0.73;;
44838;SDS011;30576;42.098;24.876;2022-10-31T18:43:33;1.90;;;1.15;;
44838;SDS011;30576;42.098;24.876;2022-10-31T18:45:59;2.53;;;1.67;;
44838;SDS011;30576;42.098;24.876;2022-10-31T18:48:29;3.83;;;1.75;;
44838;SDS011;30576;42.098;24.876;2022-10-31T18:51:00;2.30;;;1.38;;
44838;SDS011;30576;42.098;24.876;2022-10-31T18:53:26;15.00;;;2.20;;
44838;SDS011;30576;42.098;24.876;2022-10-31T18:55:51;3.97;;;1.95;;
44838;SDS011;30576;42.098;24.876;2022-10-31T18:58:17;2.50;;;1.17;;
44838;SDS011;30576;42.098;24.876;2022-10-31T19:00:42;6.78;;;1.38;;
44838;SDS011;30576;42.098;24.876;2022-10-31T19:03:09;3.28;;;2.00;;
44838;SDS011;30576;42.098;24.876;2022-10-31T19:05:35;1.17;;;1.05;;
44838;SDS011;30576;42.098;24.876;2022-10-31T19:08:00;1.67;;;1.35;;
44838;SDS011;30576;42.098;24.876;2022-10-31T19:10:26;1.92;;;0.90;;
44838;SDS011;30576;42.098;24.876;2022-10-31T19:12:51;2.08;;;1.60;;
44838;SDS011;30576;42.098;24.876;2022-10-31T19:15:17;3.53;;;1.92;;
44838;SDS011;30576;42.098;24.876;2022-10-31T19:17:42;4.22;;;1.98;;
44838;SDS011;30576;42.098;24.876;2022-10-31T19:20:08;1.77;;;1.40;;
44838;SDS011;30576;42.098;24.876;2022-10-31T19:22:34;1.13;;;1.02;;
44838;SDS011;30576;42.098;24.876;2022-10-31T19:24:59;4.75;;;2.45;;